Time;durP1;ratioP1;P1;durP2;ratioP2;P2;SDS_P1;SDS_P2;PMS_P1;PMS_P2;Temp;Humidity;BMP_temperature;BMP_pressure;BME280_temperature;BME280_humidity;BME280_pressure;Samples;Min_cycle;Max_cycle;Signal;HPM_P1;HPM_P2
2023/07/18 00:01:46;;;;;;;12.57;3.67;;;15.60;99.90;;;;;;5086943;28;20060;-71
2023/07/18 00:04:12;;;;;;;14.48;4.38;;;15.60;99.90;;;;;;5061019;28;20150;-71
2023/07/18 00:06:41;;;;;;;14.30;4.70;;;15.50;99.90;;;;;;5074963;28;20725;-72
2023/07/18 00:09:07;;;;;;;11.75;4.00;;;15.50;99.90;;;;;;5071910;28;20036;-72
2023/07/18 00:11:33;;;;;;;12.05;4.57;;;15.50;99.90;;;;;;5077071;28;20097;-70
2023/07/18 00:13:59;;;;;;;14.65;3.80;;;15.50;99.90;;;;;;5083317;28;20073;-71
2023/07/18 00:16:25;;;;;;;13.55;4.57;;;15.50;99.90;;;;;;5068019;28;20404;-72
2023/07/18 00:18:52;;;;;;;14.73;3.90;;;15.40;99.90;;;;;;5072850;28;20051;-71
2023/07/18 00:21:18;;;;;;;11.57;3.80;;;15.40;99.90;;;;;;5075752;28;20059;-72
2023/07/18 00:23:43;;;;;;;11.00;3.67;;;15.40;99.90;;;;;;5083929;28;20074;-72
2023/07/18 00:26:09;;;;;;;18.15;3.88;;;15.40;99.90;;;;;;5078042;28;20048;-71
2023/07/18 00:28:35;;;;;;;14.20;3.85;;;15.40;99.90;;;;;;5071268;28;20061;-72
2023/07/18 00:31:03;;;;;;;10.45;4.15;;;15.30;99.90;;;;;;5081005;28;20047;-72
2023/07/18 00:33:29;;;;;;;14.55;4.13;;;15.30;99.90;;;;;;5061601;28;20051;-71
2023/07/18 00:35:54;;;;;;;13.05;3.92;;;15.30;99.90;;;;;;5072014;28;20045;-72
2023/07/18 00:38:20;;;;;;;11.50;3.75;;;15.20;99.90;;;;;;5077228;28;20524;-72
2023/07/18 00:40:49;;;;;;;14.48;3.92;;;15.20;99.90;;;;;;5072013;28;20127;-72
2023/07/18 00:43:16;;;;;;;15.43;3.95;;;15.20;99.90;;;;;;5074233;28;20036;-71
2023/07/18 00:45:44;;;;;;;12.15;3.80;;;15.20;99.90;;;;;;5080954;28;20028;-72
2023/07/18 00:48:10;;;;;;;14.85;3.72;;;15.20;99.90;;;;;;5083776;28;20409;-71
2023/07/18 00:50:37;;;;;;;11.48;3.78;;;15.20;99.90;;;;;;5071186;28;20115;-72
2023/07/18 00:53:03;;;;;;;14.23;4.43;;;15.20;99.90;;;;;;5080089;28;20185;-71
2023/07/18 00:55:29;;;;;;;11.60;3.63;;;15.20;99.90;;;;;;5065785;28;20127;-71
2023/07/18 00:57:57;;;;;;;16.27;3.90;;;15.10;99.90;;;;;;5078230;28;20055;-72
2023/07/18 01:00:23;;;;;;;13.07;4.05;;;15.10;99.90;;;;;;5071740;28;20436;-71
2023/07/18 01:02:50;;;;;;;12.57;3.65;;;15.10;99.90;;;;;;5059265;28;20048;-71
2023/07/18 01:05:18;;;;;;;13.07;4.45;;;15.10;99.90;;;;;;5076487;28;20809;-71
2023/07/18 01:07:44;;;;;;;12.45;4.10;;;15.00;99.90;;;;;;5054728;28;20055;-72
2023/07/18 01:10:13;;;;;;;13.30;4.40;;;15.00;99.90;;;;;;5084562;28;20073;-72
2023/07/18 01:12:39;;;;;;;12.57;3.58;;;15.00;99.90;;;;;;5070448;28;21302;-72
2023/07/18 01:15:05;;;;;;;12.70;3.55;;;15.00;99.90;;;;;;5081601;28;20043;-72
2023/07/18 01:17:31;;;;;;;13.27;4.15;;;15.00;99.90;;;;;;5079393;28;20052;-71
2023/07/18 01:19:57;;;;;;;14.95;4.25;;;15.00;99.90;;;;;;5070053;28;20059;-71
2023/07/18 01:22:23;;;;;;;11.48;4.28;;;14.90;99.90;;;;;;5064468;28;20754;-68
2023/07/18 01:24:49;;;;;;;14.55;4.25;;;14.90;99.90;;;;;;5066486;28;20036;-68
2023/07/18 01:27:14;;;;;;;13.23;4.30;;;14.90;99.90;;;;;;5076747;28;20055;-68
2023/07/18 01:29:40;;;;;;;14.48;4.32;;;14.90;99.90;;;;;;5069914;28;20041;-69
2023/07/18 01:32:06;;;;;;;13.40;4.28;;;14.80;99.90;;;;;;5071587;28;20119;-68
2023/07/18 01:34:32;;;;;;;10.77;4.05;;;14.80;99.90;;;;;;5068027;28;20180;-68
2023/07/18 01:36:58;;;;;;;13.15;4.28;;;14.80;99.90;;;;;;5070153;28;20556;-69
2023/07/18 01:39:24;;;;;;;12.27;3.90;;;14.80;99.90;;;;;;5076356;28;20508;-68
2023/07/18 01:41:49;;;;;;;17.00;3.92;;;14.80;99.90;;;;;;5078137;28;20057;-68
2023/07/18 01:44:15;;;;;;;17.38;4.93;;;14.80;99.90;;;;;;5068111;28;20103;-68
2023/07/18 01:46:41;;;;;;;16.00;4.57;;;14.70;99.90;;;;;;5075102;28;20040;-70
2023/07/18 01:49:08;;;;;;;11.57;4.40;;;14.80;99.90;;;;;;5074011;28;20097;-70
2023/07/18 01:51:34;;;;;;;14.05;4.32;;;14.80;99.90;;;;;;5074788;28;20708;-69
2023/07/18 01:54:00;;;;;;;12.63;3.90;;;14.70;99.90;;;;;;5075875;28;20040;-69
2023/07/18 01:56:26;;;;;;;12.45;4.00;;;14.70;99.90;;;;;;5067293;28;20574;-70
2023/07/18 01:58:51;;;;;;;9.35;3.80;;;14.70;99.90;;;;;;5073899;28;20052;-70
2023/07/18 02:01:17;;;;;;;10.45;4.13;;;14.70;99.90;;;;;;5070236;28;20433;-68
2023/07/18 02:03:43;;;;;;;12.93;4.65;;;14.70;99.90;;;;;;5079606;28;20036;-68
2023/07/18 02:06:10;;;;;;;12.95;3.78;;;14.70;99.90;;;;;;5064492;28;20063;-68
2023/07/18 02:08:36;;;;;;;11.35;4.60;;;14.70;99.90;;;;;;5075422;28;20059;-68
2023/07/18 02:11:01;;;;;;;11.30;4.60;;;14.70;99.90;;;;;;5077519;28;20040;-68
2023/07/18 02:13:28;;;;;;;13.40;5.07;;;14.60;99.90;;;;;;5071156;28;20121;-69
2023/07/18 02:15:54;;;;;;;17.98;5.05;;;14.70;99.90;;;;;;5072868;28;20064;-69
2023/07/18 02:18:20;;;;;;;16.27;4.88;;;14.60;99.90;;;;;;5065619;28;20493;-69
2023/07/18 02:20:46;;;;;;;15.73;4.85;;;14.60;99.90;;;;;;5080044;28;20080;-69
2023/07/18 02:23:12;;;;;;;18.27;4.93;;;14.60;99.90;;;;;;5081217;28;20048;-69
2023/07/18 02:25:38;;;;;;;10.90;4.00;;;14.60;99.90;;;;;;5085566;28;20056;-69
2023/07/18 02:28:03;;;;;;;14.88;4.40;;;14.60;99.90;;;;;;5073400;28;20528;-69
2023/07/18 02:30:29;;;;;;;15.55;4.60;;;14.60;99.90;;;;;;5067819;28;20055;-69
2023/07/18 02:32:55;;;;;;;19.83;5.45;;;14.50;99.90;;;;;;5078364;28;20072;-68
2023/07/18 02:35:22;;;;;;;20.23;4.80;;;14.50;99.90;;;;;;5070338;28;20044;-69
2023/07/18 02:37:48;;;;;;;16.52;4.80;;;14.50;99.90;;;;;;5076542;28;20048;-69
2023/07/18 02:40:17;;;;;;;15.52;4.38;;;14.50;99.90;;;;;;5076844;28;20048;-70
2023/07/18 02:42:42;;;;;;;13.93;4.13;;;14.50;99.90;;;;;;5061872;28;20044;-69
2023/07/18 02:45:09;;;;;;;17.60;4.78;;;14.50;99.90;;;;;;5084805;28;20371;-69
2023/07/18 02:47:34;;;;;;;14.43;4.55;;;14.50;99.90;;;;;;5085676;28;20054;-69
2023/07/18 02:50:00;;;;;;;15.63;4.85;;;14.50;99.90;;;;;;5078301;28;20051;-69
2023/07/18 02:52:26;;;;;;;17.58;4.68;;;14.50;99.90;;;;;;5090151;28;20115;-69
2023/07/18 02:54:53;;;;;;;13.65;4.60;;;14.50;99.90;;;;;;5081785;28;20043;-69
2023/07/18 02:57:19;;;;;;;23.67;5.25;;;14.40;99.90;;;;;;5068849;28;20037;-69
2023/07/18 02:59:45;;;;;;;12.38;4.65;;;14.50;99.90;;;;;;5101587;28;20133;-69
2023/07/18 03:02:11;;;;;;;11.48;4.38;;;14.50;99.90;;;;;;5079787;28;20068;-69
2023/07/18 03:04:38;;;;;;;14.88;5.25;;;14.50;99.90;;;;;;5084430;28;20036;-68
2023/07/18 03:07:04;;;;;;;13.38;4.95;;;14.40;99.90;;;;;;5078504;28;20040;-69
2023/07/18 03:09:34;;;;;;;14.35;4.97;;;14.40;99.90;;;;;;5074323;28;20032;-69
2023/07/18 03:11:59;;;;;;;12.25;5.32;;;14.40;99.90;;;;;;5078582;28;20515;-69
2023/07/18 03:14:25;;;;;;;13.55;4.82;;;14.40;99.90;;;;;;5075100;28;20045;-69
2023/07/18 03:16:51;;;;;;;13.98;4.70;;;14.40;99.90;;;;;;5080115;28;20070;-69
2023/07/18 03:19:16;;;;;;;13.65;4.85;;;14.40;99.90;;;;;;5079344;28;20914;-69
2023/07/18 03:21:45;;;;;;;13.48;4.70;;;14.30;99.90;;;;;;5075890;28;20048;-69
2023/07/18 03:24:11;;;;;;;17.55;5.30;;;14.30;99.90;;;;;;5082504;28;20420;-69
2023/07/18 03:26:36;;;;;;;16.83;4.70;;;14.30;99.90;;;;;;5075541;28;20068;-69
2023/07/18 03:29:05;;;;;;;14.05;5.10;;;14.30;99.90;;;;;;5064815;28;20044;-69
2023/07/18 03:31:31;;;;;;;14.95;4.60;;;14.30;99.90;;;;;;5075584;28;20078;-68
2023/07/18 03:33:56;;;;;;;13.73;4.80;;;14.30;99.90;;;;;;5079555;28;20454;-69
2023/07/18 03:36:22;;;;;;;14.82;5.35;;;14.30;99.90;;;;;;5077346;28;20043;-68
2023/07/18 03:38:48;;;;;;;11.93;5.20;;;14.30;99.90;;;;;;5080820;28;20597;-68
2023/07/18 03:41:14;;;;;;;13.18;5.00;;;14.30;99.90;;;;;;5079697;28;20063;-69
2023/07/18 03:43:39;;;;;;;11.73;4.72;;;14.30;99.90;;;;;;5076273;28;20421;-69
2023/07/18 03:46:05;;;;;;;15.68;4.97;;;14.20;99.90;;;;;;5074620;28;20048;-69
2023/07/18 03:48:31;;;;;;;14.32;5.05;;;14.20;99.90;;;;;;5055484;28;20047;-69
2023/07/18 03:50:56;;;;;;;13.20;5.20;;;14.20;99.90;;;;;;5073986;28;20458;-68
2023/07/18 03:53:22;;;;;;;11.50;4.65;;;14.20;99.90;;;;;;5076032;28;20412;-70
2023/07/18 03:55:48;;;;;;;14.93;5.30;;;14.20;99.90;;;;;;5079039;28;20117;-70
2023/07/18 03:58:14;;;;;;;15.40;5.53;;;14.20;99.90;;;;;;5072397;28;20573;-69
2023/07/18 04:00:39;;;;;;;16.63;5.20;;;14.20;99.90;;;;;;5060878;28;20044;-69
2023/07/18 04:03:05;;;;;;;14.85;4.95;;;14.20;99.90;;;;;;5074122;28;20052;-69
2023/07/18 04:05:31;;;;;;;14.50;5.20;;;14.20;99.90;;;;;;5068538;28;20059;-69
2023/07/18 04:07:57;;;;;;;12.35;4.97;;;14.10;99.90;;;;;;5066445;28;20055;-69
2023/07/18 04:10:22;;;;;;;15.75;5.65;;;14.10;99.90;;;;;;5078419;28;20040;-69
2023/07/18 04:12:48;;;;;;;18.25;5.50;;;14.10;99.90;;;;;;5072649;28;20436;-69
2023/07/18 04:15:14;;;;;;;17.20;4.82;;;14.10;99.90;;;;;;5068558;28;20043;-69
2023/07/18 04:17:40;;;;;;;11.98;5.07;;;14.10;99.90;;;;;;5079696;28;20559;-69
2023/07/18 04:20:07;;;;;;;15.95;5.05;;;14.10;99.90;;;;;;5072182;28;20051;-69
2023/07/18 04:22:32;;;;;;;13.93;4.60;;;14.10;99.90;;;;;;5063032;28;20496;-69
2023/07/18 04:24:58;;;;;;;16.42;5.20;;;14.10;99.90;;;;;;5062582;28;20055;-69
2023/07/18 04:27:26;;;;;;;13.93;4.88;;;14.10;99.90;;;;;;5068974;28;20048;-69
2023/07/18 04:29:53;;;;;;;14.90;5.22;;;14.10;99.90;;;;;;5068353;28;20041;-69
2023/07/18 04:32:20;;;;;;;13.57;5.38;;;14.10;99.90;;;;;;5085422;28;20041;-69
2023/07/18 04:34:49;;;;;;;16.30;5.25;;;14.10;99.90;;;;;;5101163;28;20065;-69
2023/07/18 04:37:15;;;;;;;17.95;4.85;;;14.20;99.90;;;;;;5082084;28;20063;-69
2023/07/18 04:39:40;;;;;;;17.48;5.43;;;14.20;99.90;;;;;;5080666;28;20048;-69
2023/07/18 04:42:06;;;;;;;18.92;4.90;;;14.20;99.90;;;;;;5078924;28;20036;-69
2023/07/18 04:44:32;;;;;;;17.25;4.70;;;14.20;99.90;;;;;;5067558;28;20036;-69
2023/07/18 04:46:59;;;;;;;16.73;4.53;;;14.30;99.90;;;;;;5074027;28;20807;-69
2023/07/18 04:49:25;;;;;;;12.20;4.55;;;14.30;99.90;;;;;;5066429;28;20049;-69
2023/07/18 04:51:51;;;;;;;21.17;5.57;;;14.30;99.90;;;;;;5080487;28;20515;-69
2023/07/18 04:54:18;;;;;;;22.35;5.43;;;14.40;99.90;;;;;;5087162;28;20135;-69
2023/07/18 04:56:44;;;;;;;18.48;5.18;;;14.40;99.90;;;;;;5084811;28;20051;-69
2023/07/18 04:59:11;;;;;;;15.85;5.50;;;14.40;99.90;;;;;;5088050;28;20055;-69
2023/07/18 05:01:39;;;;;;;14.88;4.72;;;14.40;99.90;;;;;;5070269;28;20051;-69
2023/07/18 05:04:05;;;;;;;13.10;4.90;;;14.40;99.90;;;;;;5063393;28;20045;-69
2023/07/18 05:06:31;;;;;;;18.05;5.07;;;14.40;99.90;;;;;;5082181;28;20036;-69
2023/07/18 05:08:57;;;;;;;13.93;4.97;;;14.50;99.90;;;;;;5079329;28;20106;-69
2023/07/18 05:11:22;;;;;;;16.98;5.13;;;14.50;99.90;;;;;;5069078;28;20742;-69
2023/07/18 05:13:48;;;;;;;18.75;5.32;;;14.50;99.90;;;;;;5054923;28;20500;-69
2023/07/18 05:16:14;;;;;;;19.73;5.47;;;14.50;99.90;;;;;;5068962;28;20464;-68
2023/07/18 05:18:40;;;;;;;18.73;5.18;;;14.50;99.90;;;;;;5048919;28;20075;-69
2023/07/18 05:21:06;;;;;;;19.30;5.18;;;14.60;99.90;;;;;;5049648;28;20827;-69
2023/07/18 05:23:31;;;;;;;13.85;4.75;;;14.60;99.90;;;;;;5066097;28;20032;-69
2023/07/18 05:25:57;;;;;;;18.20;4.78;;;14.60;99.90;;;;;;5068295;28;20478;-69
2023/07/18 05:28:23;;;;;;;20.42;5.85;;;14.70;99.90;;;;;;5065285;28;20044;-69
2023/07/18 05:30:49;;;;;;;16.20;4.82;;;14.70;99.90;;;;;;5066294;28;20059;-69
2023/07/18 05:33:15;;;;;;;16.85;5.32;;;14.80;99.90;;;;;;5072161;28;20054;-70
2023/07/18 05:35:40;;;;;;;16.45;5.10;;;14.80;99.90;;;;;;5065642;28;20044;-69
2023/07/18 05:38:07;;;;;;;18.55;5.75;;;14.80;99.90;;;;;;5081491;28;20850;-69
2023/07/18 05:40:33;;;;;;;19.23;6.10;;;14.90;99.90;;;;;;5052002;28;20101;-69
2023/07/18 05:42:58;;;;;;;22.00;5.30;;;14.80;99.90;;;;;;5069713;28;20047;-69
2023/07/18 05:45:24;;;;;;;18.02;5.22;;;14.90;99.90;;;;;;5051972;28;20475;-69
2023/07/18 05:47:50;;;;;;;20.15;5.75;;;14.90;99.90;;;;;;5071505;28;20044;-69
2023/07/18 05:50:17;;;;;;;19.65;5.85;;;14.90;99.90;;;;;;5069362;28;20044;-69
2023/07/18 05:52:43;;;;;;;19.55;5.85;;;15.00;99.90;;;;;;5069583;28;20052;-69
2023/07/18 05:55:09;;;;;;;20.80;6.20;;;15.00;99.90;;;;;;5058409;28;20059;-69
2023/07/18 05:57:35;;;;;;;17.80;5.57;;;15.00;99.90;;;;;;5067655;28;20043;-69
2023/07/18 06:00:05;;;;;;;18.92;6.03;;;15.00;99.90;;;;;;5078731;28;20124;-69
2023/07/18 06:02:31;;;;;;;15.73;5.68;;;15.10;99.90;;;;;;5067886;28;20051;-69
2023/07/18 06:04:56;;;;;;;29.60;6.22;;;15.10;99.90;;;;;;5068891;28;20048;-69
2023/07/18 06:07:22;;;;;;;14.57;6.22;;;15.20;99.90;;;;;;5070075;28;20051;-69
2023/07/18 06:09:52;;;;;;;17.85;5.25;;;15.30;99.90;;;;;;5070689;28;20036;-69
2023/07/18 06:12:18;;;;;;;19.95;6.45;;;15.40;99.90;;;;;;5064015;28;20055;-69
2023/07/18 06:14:44;;;;;;;16.15;6.25;;;15.50;99.90;;;;;;5064787;28;20481;-69
2023/07/18 06:17:09;;;;;;;15.93;5.53;;;15.60;99.90;;;;;;5081329;28;20044;-69
2023/07/18 06:19:35;;;;;;;16.60;5.53;;;15.70;99.90;;;;;;5069334;28;20123;-69
2023/07/18 06:22:02;;;;;;;21.25;6.00;;;15.70;99.90;;;;;;5074617;28;20056;-69
2023/07/18 06:24:28;;;;;;;22.30;6.05;;;15.80;99.90;;;;;;5080906;28;20140;-69
2023/07/18 06:26:53;;;;;;;20.48;6.10;;;15.90;99.90;;;;;;5085174;28;20456;-70
2023/07/18 06:29:20;;;;;;;17.92;5.32;;;16.10;99.90;;;;;;5091058;27;20551;-69
2023/07/18 06:31:47;;;;;;;17.88;5.60;;;16.30;99.90;;;;;;5078427;28;20121;-69
2023/07/18 06:34:13;;;;;;;16.00;5.28;;;16.30;99.90;;;;;;5086384;28;20036;-69
2023/07/18 06:36:38;;;;;;;15.93;5.30;;;16.40;99.90;;;;;;5083516;28;20094;-69
2023/07/18 06:39:05;;;;;;;19.02;5.68;;;16.50;99.90;;;;;;5082254;28;20093;-69
2023/07/18 06:41:34;;;;;;;16.73;5.45;;;16.50;99.90;;;;;;5084479;28;20040;-69
2023/07/18 06:44:00;;;;;;;20.80;6.03;;;16.60;99.90;;;;;;5062507;28;20083;-69
2023/07/18 06:46:25;;;;;;;18.58;6.13;;;16.70;99.90;;;;;;5081254;28;20138;-70
2023/07/18 06:48:52;;;;;;;18.63;5.80;;;16.70;99.90;;;;;;5076863;28;20500;-70
2023/07/18 06:51:18;;;;;;;18.98;5.65;;;16.80;99.90;;;;;;5080027;28;20046;-69
2023/07/18 06:53:44;;;;;;;20.83;6.07;;;16.70;99.90;;;;;;5072032;28;20067;-71
2023/07/18 06:56:10;;;;;;;18.38;5.82;;;16.80;99.90;;;;;;5100473;28;20509;-69
2023/07/18 06:58:36;;;;;;;22.23;6.03;;;16.80;99.90;;;;;;5076450;28;20062;-70
2023/07/18 07:01:02;;;;;;;19.33;6.30;;;16.90;99.90;;;;;;5073748;28;20072;-69
2023/07/18 07:03:28;;;;;;;17.70;5.82;;;16.90;99.90;;;;;;5087546;28;20417;-69
2023/07/18 07:05:54;;;;;;;16.48;6.43;;;17.00;99.90;;;;;;5080006;28;20055;-69
2023/07/18 07:08:22;;;;;;;24.70;6.57;;;17.00;99.90;;;;;;5085794;28;20032;-70
2023/07/18 07:10:48;;;;;;;16.70;5.78;;;17.10;99.90;;;;;;5086340;28;20101;-70
2023/07/18 07:13:13;;;;;;;17.10;5.93;;;17.10;99.90;;;;;;5076165;28;20044;-70
2023/07/18 07:15:40;;;;;;;22.33;7.05;;;17.20;99.90;;;;;;5057304;28;20504;-70
2023/07/18 07:18:06;;;;;;;16.55;6.05;;;17.30;99.90;;;;;;5086807;28;20044;-70
2023/07/18 07:20:32;;;;;;;22.05;8.35;;;17.30;99.90;;;;;;5094149;28;20909;-72
2023/07/18 07:22:59;;;;;;;23.42;7.85;;;17.50;99.90;;;;;;5061431;28;20170;-72
2023/07/18 07:25:30;;;;;;;16.65;7.95;;;17.50;99.90;;;;;;5070514;28;20108;-72
2023/07/18 07:27:56;;;;;;;26.40;8.68;;;17.60;99.90;;;;;;5068205;28;20440;-71
2023/07/18 07:30:23;;;;;;;19.10;7.28;;;17.70;99.90;;;;;;5064075;28;20094;-71
2023/07/18 07:32:53;;;;;;;20.10;6.55;;;17.70;99.90;;;;;;5073364;28;20533;-71
2023/07/18 07:35:19;;;;;;;17.23;5.80;;;17.80;99.90;;;;;;5070579;28;20056;-72
2023/07/18 07:37:51;;;;;;;20.95;6.00;;;17.90;99.90;;;;;;5057091;28;20134;-72
2023/07/18 07:40:18;;;;;;;20.08;5.53;;;18.00;99.90;;;;;;5066050;28;20040;-73
2023/07/18 07:42:45;;;;;;;18.58;5.53;;;18.10;99.90;;;;;;5068637;28;20044;-74
2023/07/18 07:45:12;;;;;;;21.10;5.40;;;18.20;99.90;;;;;;5068388;28;20048;-73
2023/07/18 07:47:38;;;;;;;17.08;5.35;;;18.40;99.90;;;;;;5071470;28;20055;-72
2023/07/18 07:50:08;;;;;;;21.88;5.57;;;18.50;99.90;;;;;;5070279;28;20134;-72
2023/07/18 07:52:35;;;;;;;15.00;5.13;;;18.70;99.90;;;;;;5069459;28;20894;-71
2023/07/18 07:55:01;;;;;;;14.27;5.30;;;18.80;99.90;;;;;;5070786;28;20082;-72
2023/07/18 07:57:28;;;;;;;16.20;5.07;;;19.00;99.90;;;;;;5075602;28;20051;-72
2023/07/18 07:59:54;;;;;;;14.13;4.45;;;19.10;99.90;;;;;;5065114;28;20159;-72
2023/07/18 08:02:20;;;;;;;15.45;4.30;;;19.20;99.90;;;;;;5071211;28;20048;-72
2023/07/18 08:04:47;;;;;;;14.88;4.05;;;19.20;99.90;;;;;;5067691;28;20515;-72
2023/07/18 08:07:13;;;;;;;11.20;4.55;;;19.20;99.90;;;;;;5072939;28;20047;-72
2023/07/18 08:09:39;;;;;;;17.63;3.85;;;19.30;99.90;;;;;;5066615;28;20116;-71
2023/07/18 08:12:06;;;;;;;14.50;3.70;;;19.30;99.90;;;;;;5074137;28;20340;-72
2023/07/18 08:14:33;;;;;;;11.30;3.75;;;19.40;99.90;;;;;;5070448;28;20082;-71
2023/07/18 08:16:59;;;;;;;12.13;3.72;;;19.50;99.90;;;;;;5052604;28;20068;-72
2023/07/18 08:19:26;;;;;;;14.05;3.60;;;19.60;99.90;;;;;;5070139;28;20128;-72
2023/07/18 08:21:52;;;;;;;13.35;3.35;;;19.70;99.90;;;;;;5070842;28;20794;-72
2023/07/18 08:24:17;;;;;;;11.73;3.40;;;19.80;99.90;;;;;;5067489;28;20558;-72
2023/07/18 08:26:43;;;;;;;14.98;3.78;;;19.80;99.90;;;;;;5065352;28;20070;-72
2023/07/18 08:29:09;;;;;;;12.48;3.30;;;19.90;99.90;;;;;;5071848;28;20048;-72
2023/07/18 08:31:35;;;;;;;11.38;3.05;;;20.00;99.90;;;;;;5088333;28;20099;-72
2023/07/18 08:34:00;;;;;;;14.70;3.17;;;20.20;99.90;;;;;;5079227;28;20052;-71
2023/07/18 08:36:27;;;;;;;9.88;2.72;;;20.30;99.90;;;;;;5068588;28;20207;-71
2023/07/18 08:38:53;;;;;;;11.13;2.30;;;20.40;99.90;;;;;;5067252;28;20079;-71
2023/07/18 08:41:22;;;;;;;13.13;2.60;;;20.30;99.90;;;;;;5067785;28;20123;-71
2023/07/18 08:43:48;;;;;;;12.93;2.60;;;20.30;99.90;;;;;;5065762;28;20044;-71
2023/07/18 08:46:15;;;;;;;10.88;2.65;;;20.30;99.90;;;;;;5057223;28;20036;-71
2023/07/18 08:48:44;;;;;;;19.90;3.05;;;20.30;99.90;;;;;;5072881;28;20040;-71
2023/07/18 08:51:12;;;;;;;12.00;2.20;;;20.40;99.90;;;;;;5073907;28;20048;-71
2023/07/18 08:53:41;;;;;;;6.85;2.10;;;20.50;99.90;;;;;;5060629;28;20602;-71
2023/07/18 08:56:10;;;;;;;5.75;1.40;;;20.60;99.90;;;;;;5066853;28;20131;-71
2023/07/18 08:58:37;;;;;;;8.27;2.15;;;20.70;99.90;;;;;;5073009;28;20047;-71
2023/07/18 09:01:04;;;;;;;9.93;2.00;;;20.80;99.90;;;;;;5068463;28;20600;-71
2023/07/18 09:03:30;;;;;;;6.30;1.95;;;20.80;99.90;;;;;;5072695;28;20055;-71
2023/07/18 09:05:57;;;;;;;8.70;1.90;;;20.80;99.90;;;;;;5070267;28;20408;-71
2023/07/18 09:08:23;;;;;;;8.10;1.75;;;20.80;99.90;;;;;;5051593;28;20051;-71
2023/07/18 09:11:03;;;;;;;6.90;1.60;;;20.80;99.90;;;;;;5055672;28;20049;-71
2023/07/18 09:13:37;;;;;;;8.05;1.95;;;20.90;99.90;;;;;;5067681;28;20756;-72
2023/07/18 09:16:19;;;;;;;6.63;1.73;;;21.00;99.90;;;;;;5066500;28;20044;-71
2023/07/18 09:18:53;;;;;;;8.30;1.75;;;21.10;99.90;;;;;;5068085;28;20048;-72
2023/07/18 09:21:20;;;;;;;8.38;1.95;;;21.20;99.90;;;;;;5068729;28;20067;-71
2023/07/18 09:23:47;;;;;;;8.88;2.30;;;21.20;99.90;;;;;;5067613;28;20122;-71
2023/07/18 09:26:14;;;;;;;8.65;2.28;;;21.30;99.90;;;;;;5075161;28;20041;-72
2023/07/18 09:28:41;;;;;;;9.05;1.83;;;21.50;99.90;;;;;;5050948;28;20057;-72
2023/07/18 09:31:24;;;;;;;13.85;1.90;;;21.50;99.90;;;;;;5068927;28;20557;-72
2023/07/18 09:33:54;;;;;;;8.68;2.47;;;21.60;99.90;;;;;;5069162;28;20052;-71
2023/07/18 09:36:24;;;;;;;11.77;2.00;;;21.70;99.90;;;;;;5069247;28;20058;-71
2023/07/18 09:38:51;;;;;;;8.80;1.63;;;21.70;99.90;;;;;;5065725;28;20131;-71
2023/07/18 09:41:21;;;;;;;10.63;1.73;;;21.80;99.90;;;;;;5066760;28;20052;-71
2023/07/18 09:43:48;;;;;;;7.55;1.38;;;21.80;99.90;;;;;;5069157;28;20040;-71
2023/07/18 09:46:15;;;;;;;6.03;1.30;;;21.70;99.90;;;;;;5054413;28;20106;-71
2023/07/18 09:48:43;;;;;;;8.43;2.00;;;21.70;99.90;;;;;;5072823;28;20517;-71
2023/07/18 09:51:21;;;;;;;10.45;2.10;;;21.70;99.90;;;;;;5068261;28;20051;-71
2023/07/18 09:53:48;;;;;;;9.95;2.20;;;21.80;99.90;;;;;;5069531;28;20055;-70
2023/07/18 09:56:15;;;;;;;11.40;2.30;;;21.90;99.90;;;;;;5072612;28;20044;-71
2023/07/18 09:58:43;;;;;;;8.57;2.00;;;22.00;99.90;;;;;;5070811;28;20052;-71
2023/07/18 10:01:12;;;;;;;9.95;2.22;;;22.10;99.90;;;;;;5083008;28;20196;-71
2023/07/18 10:03:39;;;;;;;11.15;2.25;;;22.00;99.90;;;;;;5070035;28;20048;-72
2023/07/18 10:06:10;;;;;;;12.55;2.30;;;22.00;99.90;;;;;;5062706;28;20041;-72
2023/07/18 10:08:41;;;;;;;8.20;2.25;;;21.90;99.90;;;;;;5072550;28;20543;-72
2023/07/18 10:11:08;;;;;;;9.48;2.33;;;21.80;99.90;;;;;;5080877;28;20043;-72
2023/07/18 10:13:41;;;;;;;9.38;2.78;;;21.70;99.90;;;;;;5082241;28;20121;-72
2023/07/18 10:16:13;;;;;;;10.05;2.33;;;21.70;99.90;;;;;;5075742;28;20090;-71
2023/07/18 10:18:52;;;;;;;10.05;2.45;;;21.60;99.90;;;;;;5057468;28;20047;-71
2023/07/18 10:21:29;;;;;;;9.15;2.30;;;21.60;99.90;;;;;;5068778;28;20043;-71
2023/07/18 10:23:55;;;;;;;9.82;1.65;;;21.50;99.90;;;;;;5071312;28;20050;-71
2023/07/18 10:26:34;;;;;;;9.23;2.40;;;21.50;99.90;;;;;;5067563;28;20040;-72
2023/07/18 10:29:02;;;;;;;8.30;2.50;;;21.40;99.90;;;;;;5075689;28;20040;-71
2023/07/18 10:31:35;;;;;;;7.45;2.10;;;21.40;99.90;;;;;;5069707;28;20587;-71
2023/07/18 10:34:10;;;;;;;8.63;2.20;;;21.40;99.90;;;;;;5072102;28;20048;-71
2023/07/18 10:36:39;;;;;;;7.82;2.35;;;21.40;99.90;;;;;;5072229;28;20101;-72
2023/07/18 10:39:09;;;;;;;9.85;2.40;;;21.40;99.90;;;;;;5072964;28;20040;-72
2023/07/18 10:41:39;;;;;;;9.80;2.47;;;21.40;99.90;;;;;;5069631;28;20509;-72
2023/07/18 10:44:13;;;;;;;12.68;2.42;;;21.40;99.90;;;;;;5060575;28;20498;-70
2023/07/18 10:46:39;;;;;;;11.88;2.63;;;21.60;99.90;;;;;;5047823;28;20051;-70
2023/07/18 10:49:06;;;;;;;6.88;1.90;;;21.70;99.90;;;;;;5065211;28;20080;-70
2023/07/18 10:51:35;;;;;;;9.57;2.47;;;21.80;99.90;;;;;;5070580;28;20048;-71
2023/07/18 10:54:02;;;;;;;7.43;1.73;;;21.90;99.90;;;;;;5069098;28;20035;-70
2023/07/18 10:56:28;;;;;;;7.47;1.95;;;21.90;99.90;;;;;;5067009;28;20040;-70
2023/07/18 10:58:57;;;;;;;9.77;2.00;;;21.90;99.90;;;;;;5049883;28;20056;-72
2023/07/18 11:01:25;;;;;;;6.80;1.88;;;22.10;99.90;;;;;;5061738;28;20100;-72
2023/07/18 11:03:51;;;;;;;8.88;2.08;;;22.20;99.90;;;;;;5068006;28;20032;-71
2023/07/18 11:06:17;;;;;;;8.18;1.75;;;22.30;99.90;;;;;;5070217;28;20087;-71
2023/07/18 11:08:45;;;;;;;11.23;1.95;;;22.40;99.90;;;;;;5051585;28;20047;-71
2023/07/18 11:11:14;;;;;;;9.00;2.10;;;22.40;99.90;;;;;;5061329;28;21835;-71
2023/07/18 11:13:43;;;;;;;6.28;1.73;;;22.40;99.90;;;;;;5062514;28;20536;-70
2023/07/18 11:16:18;;;;;;;8.75;1.67;;;22.40;99.90;;;;;;5049884;28;20102;-71
2023/07/18 11:18:46;;;;;;;7.18;1.80;;;22.40;99.90;;;;;;5060314;28;20040;-70
2023/07/18 11:21:16;;;;;;;8.88;1.90;;;22.30;99.90;;;;;;5067129;28;20130;-70
2023/07/18 11:23:43;;;;;;;8.70;2.67;;;22.30;99.90;;;;;;5071588;28;20914;-71
2023/07/18 11:26:14;;;;;;;9.63;1.60;;;22.30;99.90;;;;;;5074698;28;20063;-71
2023/07/18 11:28:41;;;;;;;7.50;1.65;;;22.30;99.90;;;;;;5056143;28;20040;-71
2023/07/18 11:31:25;;;;;;;9.98;2.40;;;22.30;99.90;;;;;;5076764;28;20080;-71
2023/07/18 11:34:01;;;;;;;8.77;1.92;;;22.30;99.90;;;;;;5057334;28;20044;-71
2023/07/18 11:36:32;;;;;;;8.82;2.05;;;22.30;99.90;;;;;;5078265;28;20044;-71
2023/07/18 11:39:00;;;;;;;10.27;2.13;;;22.20;99.90;;;;;;5083066;28;20549;-71
2023/07/18 11:41:33;;;;;;;6.93;1.77;;;22.20;99.90;;;;;;5072861;28;20344;-71
2023/07/18 11:44:03;;;;;;;8.70;1.95;;;22.20;99.90;;;;;;5081762;28;20578;-71
2023/07/18 11:46:41;;;;;;;8.60;2.05;;;22.20;99.90;;;;;;5074349;28;20691;-71
2023/07/18 11:49:09;;;;;;;8.38;2.08;;;22.10;99.90;;;;;;5075356;28;20060;-70
2023/07/18 11:51:36;;;;;;;7.85;1.63;;;22.10;99.90;;;;;;5082063;28;20562;-70
2023/07/18 11:54:03;;;;;;;8.23;1.70;;;22.10;99.90;;;;;;5072901;28;20044;-70
2023/07/18 11:56:30;;;;;;;8.77;2.00;;;22.10;99.90;;;;;;5075710;28;20044;-71
2023/07/18 11:58:56;;;;;;;5.38;1.30;;;22.00;99.90;;;;;;5083139;28;20051;-70
2023/07/18 12:01:22;;;;;;;6.75;1.58;;;22.00;99.90;;;;;;5071951;28;20048;-71
2023/07/18 12:03:50;;;;;;;5.25;1.20;;;22.00;99.90;;;;;;5076833;28;20044;-70
2023/07/18 12:06:16;;;;;;;7.85;1.98;;;22.00;99.90;;;;;;5080794;28;20036;-71
2023/07/18 12:08:41;;;;;;;8.05;1.60;;;22.00;99.90;;;;;;5064306;28;20040;-71
2023/07/18 12:11:09;;;;;;;6.47;1.40;;;22.00;99.90;;;;;;5073074;28;20508;-71
2023/07/18 12:13:38;;;;;;;9.00;1.50;;;22.00;99.90;;;;;;5079886;28;20043;-71
2023/07/18 12:16:07;;;;;;;9.80;2.00;;;22.10;99.90;;;;;;5057941;28;20068;-72
2023/07/18 12:18:33;;;;;;;9.63;1.85;;;22.10;99.90;;;;;;5067006;28;20521;-70
2023/07/18 12:20:59;;;;;;;10.57;1.80;;;22.10;99.90;;;;;;5070823;28;20092;-70
2023/07/18 12:23:25;;;;;;;7.18;1.80;;;22.20;99.90;;;;;;5070708;28;20040;-71
2023/07/18 12:25:51;;;;;;;7.53;1.60;;;22.30;99.90;;;;;;5068939;28;20137;-70
2023/07/18 12:28:17;;;;;;;8.40;1.88;;;22.30;99.90;;;;;;5069540;28;20079;-70
2023/07/18 12:30:43;;;;;;;9.95;2.00;;;22.30;99.90;;;;;;5054027;28;20132;-71
2023/07/18 12:33:09;;;;;;;8.98;1.85;;;22.40;99.90;;;;;;5074824;28;20048;-71
2023/07/18 12:35:36;;;;;;;5.78;1.55;;;22.50;99.90;;;;;;5071695;28;20047;-69
2023/07/18 12:38:02;;;;;;;5.20;1.35;;;22.50;99.90;;;;;;5063265;28;20040;-71
2023/07/18 12:40:28;;;;;;;8.93;1.85;;;22.60;99.90;;;;;;5061690;28;20187;-70